sensor_id;sensor_type;location;lat;lon;timestamp;temperature;humidity
67899;DHT22;54699;51.796;10.956;2023-06-10T00:02:09;24.30;51.00
67899;DHT22;54699;51.796;10.956;2023-06-10T00:04:37;24.30;51.00
67899;DHT22;54699;51.796;10.956;2023-06-10T00:07:04;24.30;51.00
67899;DHT22;54699;51.796;10.956;2023-06-10T00:09:34;24.30;51.10
67899;DHT22;54699;51.796;10.956;2023-06-10T00:12:03;24.30;51.00
67899;DHT22;54699;51.796;10.956;2023-06-10T00:14:30;24.30;51.00
67899;DHT22;54699;51.796;10.956;2023-06-10T00:16:58;24.30;51.00
67899;DHT22;54699;51.796;10.956;2023-06-10T00:19:29;24.30;51.00
67899;DHT22;54699;51.796;10.956;2023-06-10T00:21:59;24.30;51.20
67899;DHT22;54699;51.796;10.956;2023-06-10T00:24:28;24.30;52.00
67899;DHT22;54699;51.796;10.956;2023-06-10T00:26:55;24.30;51.10
67899;DHT22;54699;51.796;10.956;2023-06-10T00:29:22;24.20;51.10
67899;DHT22;54699;51.796;10.956;2023-06-10T00:31:51;24.20;51.20
67899;DHT22;54699;51.796;10.956;2023-06-10T00:34:24;24.20;51.10
67899;DHT22;54699;51.796;10.956;2023-06-10T00:36:51;24.20;51.10
67899;DHT22;54699;51.796;10.956;2023-06-10T00:39:18;24.20;51.00
67899;DHT22;54699;51.796;10.956;2023-06-10T00:41:45;24.20;51.10
67899;DHT22;54699;51.796;10.956;2023-06-10T00:44:12;24.20;51.10
67899;DHT22;54699;51.796;10.956;2023-06-10T00:46:39;24.20;51.10
67899;DHT22;54699;51.796;10.956;2023-06-10T00:49:06;24.20;51.10
67899;DHT22;54699;51.796;10.956;2023-06-10T00:51:34;24.20;51.10
67899;DHT22;54699;51.796;10.956;2023-06-10T00:54:02;24.20;51.00
67899;DHT22;54699;51.796;10.956;2023-06-10T00:56:29;24.20;51.10
67899;DHT22;54699;51.796;10.956;2023-06-10T00:58:57;24.20;51.20
67899;DHT22;54699;51.796;10.956;2023-06-10T01:01:25;24.20;51.20
67899;DHT22;54699;51.796;10.956;2023-06-10T01:03:52;24.20;51.10
67899;DHT22;54699;51.796;10.956;2023-06-10T01:06:21;24.20;51.20
67899;DHT22;54699;51.796;10.956;2023-06-10T01:09:06;24.20;51.10
67899;DHT22;54699;51.796;10.956;2023-06-10T01:11:44;24.20;51.20
67899;DHT22;54699;51.796;10.956;2023-06-10T01:14:17;24.20;51.20
67899;DHT22;54699;51.796;10.956;2023-06-10T01:16:47;24.20;51.20
67899;DHT22;54699;51.796;10.956;2023-06-10T01:19:15;24.10;51.10
67899;DHT22;54699;51.796;10.956;2023-06-10T01:21:44;24.10;51.10
67899;DHT22;54699;51.796;10.956;2023-06-10T01:24:13;24.10;51.20
67899;DHT22;54699;51.796;10.956;2023-06-10T01:26:43;24.10;51.10
67899;DHT22;54699;51.796;10.956;2023-06-10T01:29:14;24.10;51.20
67899;DHT22;54699;51.796;10.956;2023-06-10T01:31:47;24.10;51.30
67899;DHT22;54699;51.796;10.956;2023-06-10T01:34:18;24.10;51.20
67899;DHT22;54699;51.796;10.956;2023-06-10T01:36:49;24.10;51.20
67899;DHT22;54699;51.796;10.956;2023-06-10T01:39:17;24.10;51.20
67899;DHT22;54699;51.796;10.956;2023-06-10T01:41:49;24.10;51.30
67899;DHT22;54699;51.796;10.956;2023-06-10T01:44:18;24.10;51.30
67899;DHT22;54699;51.796;10.956;2023-06-10T01:46:45;24.10;51.40
67899;DHT22;54699;51.796;10.956;2023-06-10T01:49:12;24.10;51.40
67899;DHT22;54699;51.796;10.956;2023-06-10T01:51:39;24.10;51.40
67899;DHT22;54699;51.796;10.956;2023-06-10T01:54:07;24.10;51.40
67899;DHT22;54699;51.796;10.956;2023-06-10T01:56:34;24.10;51.40
67899;DHT22;54699;51.796;10.956;2023-06-10T01:59:01;24.10;51.40
67899;DHT22;54699;51.796;10.956;2023-06-10T02:01:30;24.10;51.40
67899;DHT22;54699;51.796;10.956;2023-06-10T02:03:58;24.00;51.40
67899;DHT22;54699;51.796;10.956;2023-06-10T02:06:26;24.10;51.40
67899;DHT22;54699;51.796;10.956;2023-06-10T02:08:59;24.00;51.50
67899;DHT22;54699;51.796;10.956;2023-06-10T02:11:30;24.00;51.50
67899;DHT22;54699;51.796;10.956;2023-06-10T02:14:04;24.00;51.50
67899;DHT22;54699;51.796;10.956;2023-06-10T02:16:31;24.00;51.60
67899;DHT22;54699;51.796;10.956;2023-06-10T02:19:00;24.00;51.60
67899;DHT22;54699;51.796;10.956;2023-06-10T02:21:28;23.90;51.60
67899;DHT22;54699;51.796;10.956;2023-06-10T02:23:55;24.00;51.70
67899;DHT22;54699;51.796;10.956;2023-06-10T02:26:22;24.00;51.70
67899;DHT22;54699;51.796;10.956;2023-06-10T02:28:52;24.00;51.70
67899;DHT22;54699;51.796;10.956;2023-06-10T02:31:19;23.90;51.70
67899;DHT22;54699;51.796;10.956;2023-06-10T02:33:46;23.90;51.70
67899;DHT22;54699;51.796;10.956;2023-06-10T02:36:13;23.90;51.60
67899;DHT22;54699;51.796;10.956;2023-06-10T02:38:40;23.90;51.70
67899;DHT22;54699;51.796;10.956;2023-06-10T02:41:08;23.90;51.70
67899;DHT22;54699;51.796;10.956;2023-06-10T02:43:34;23.90;51.70
67899;DHT22;54699;51.796;10.956;2023-06-10T02:46:03;23.90;51.70
67899;DHT22;54699;51.796;10.956;2023-06-10T02:48:29;23.90;51.80
67899;DHT22;54699;51.796;10.956;2023-06-10T02:50:56;23.90;51.80
67899;DHT22;54699;51.796;10.956;2023-06-10T02:53:23;23.90;52.00
67899;DHT22;54699;51.796;10.956;2023-06-10T02:55:50;23.90;51.80
67899;DHT22;54699;51.796;10.956;2023-06-10T02:58:17;23.90;51.80
67899;DHT22;54699;51.796;10.956;2023-06-10T03:00:44;23.90;51.80
67899;DHT22;54699;51.796;10.956;2023-06-10T03:03:12;23.90;51.80
67899;DHT22;54699;51.796;10.956;2023-06-10T03:05:39;23.90;52.80
67899;DHT22;54699;51.796;10.956;2023-06-10T03:08:06;23.80;51.90
67899;DHT22;54699;51.796;10.956;2023-06-10T03:10:33;23.90;52.10
67899;DHT22;54699;51.796;10.956;2023-06-10T03:13:00;23.90;52.00
67899;DHT22;54699;51.796;10.956;2023-06-10T03:15:27;23.90;51.90
67899;DHT22;54699;51.796;10.956;2023-06-10T03:17:58;23.90;51.90
67899;DHT22;54699;51.796;10.956;2023-06-10T03:20:26;23.90;51.90
67899;DHT22;54699;51.796;10.956;2023-06-10T03:22:55;23.90;51.90
67899;DHT22;54699;51.796;10.956;2023-06-10T03:25:22;23.80;51.90
67899;DHT22;54699;51.796;10.956;2023-06-10T03:27:49;23.90;51.90
67899;DHT22;54699;51.796;10.956;2023-06-10T03:30:16;23.80;51.90
67899;DHT22;54699;51.796;10.956;2023-06-10T03:32:43;23.90;51.90
67899;DHT22;54699;51.796;10.956;2023-06-10T03:35:10;23.80;52.10
67899;DHT22;54699;51.796;10.956;2023-06-10T03:37:38;23.80;52.00
67899;DHT22;54699;51.796;10.956;2023-06-10T03:40:05;23.80;52.00
67899;DHT22;54699;51.796;10.956;2023-06-10T03:42:33;23.80;52.00
67899;DHT22;54699;51.796;10.956;2023-06-10T03:45:00;23.80;52.00
67899;DHT22;54699;51.796;10.956;2023-06-10T03:47:29;23.80;52.10
67899;DHT22;54699;51.796;10.956;2023-06-10T03:50:00;23.80;52.10
67899;DHT22;54699;51.796;10.956;2023-06-10T03:52:26;23.80;52.00
67899;DHT22;54699;51.796;10.956;2023-06-10T03:54:58;23.80;52.10
67899;DHT22;54699;51.796;10.956;2023-06-10T03:57:25;23.80;52.10
67899;DHT22;54699;51.796;10.956;2023-06-10T03:59:53;23.80;52.20
67899;DHT22;54699;51.796;10.956;2023-06-10T04:02:21;23.80;52.20
67899;DHT22;54699;51.796;10.956;2023-06-10T04:04:51;23.80;52.10
67899;DHT22;54699;51.796;10.956;2023-06-10T04:07:18;23.80;52.10
67899;DHT22;54699;51.796;10.956;2023-06-10T04:09:45;23.80;52.20
67899;DHT22;54699;51.796;10.956;2023-06-10T04:12:14;23.80;52.30
67899;DHT22;54699;51.796;10.956;2023-06-10T04:14:42;23.80;52.30
67899;DHT22;54699;51.796;10.956;2023-06-10T04:17:08;23.80;52.20
67899;DHT22;54699;51.796;10.956;2023-06-10T04:19:36;23.80;52.20
67899;DHT22;54699;51.796;10.956;2023-06-10T04:22:03;23.80;52.30
67899;DHT22;54699;51.796;10.956;2023-06-10T04:24:30;23.70;52.40
67899;DHT22;54699;51.796;10.956;2023-06-10T04:26:57;23.80;52.30
67899;DHT22;54699;51.796;10.956;2023-06-10T04:29:25;23.70;52.20
67899;DHT22;54699;51.796;10.956;2023-06-10T04:31:52;23.80;52.40
67899;DHT22;54699;51.796;10.956;2023-06-10T04:34:19;23.70;52.30
67899;DHT22;54699;51.796;10.956;2023-06-10T04:36:46;23.70;52.30
67899;DHT22;54699;51.796;10.956;2023-06-10T04:39:13;23.80;52.40
67899;DHT22;54699;51.796;10.956;2023-06-10T04:41:42;23.70;52.50
67899;DHT22;54699;51.796;10.956;2023-06-10T04:44:08;23.70;52.60
67899;DHT22;54699;51.796;10.956;2023-06-10T04:46:37;23.70;52.40
67899;DHT22;54699;51.796;10.956;2023-06-10T04:49:04;23.70;52.60
67899;DHT22;54699;51.796;10.956;2023-06-10T04:51:31;23.70;52.60
67899;DHT22;54699;51.796;10.956;2023-06-10T04:53:58;23.70;52.60
67899;DHT22;54699;51.796;10.956;2023-06-10T04:56:27;23.70;52.60
67899;DHT22;54699;51.796;10.956;2023-06-10T04:58:55;23.70;52.50
67899;DHT22;54699;51.796;10.956;2023-06-10T05:01:22;23.70;52.70
67899;DHT22;54699;51.796;10.956;2023-06-10T05:03:50;23.70;52.60
67899;DHT22;54699;51.796;10.956;2023-06-10T05:06:18;23.70;52.60
67899;DHT22;54699;51.796;10.956;2023-06-10T05:08:45;23.70;52.70
67899;DHT22;54699;51.796;10.956;2023-06-10T05:11:11;23.70;52.70
67899;DHT22;54699;51.796;10.956;2023-06-10T05:13:38;23.70;52.70
67899;DHT22;54699;51.796;10.956;2023-06-10T05:16:08;23.70;52.70
67899;DHT22;54699;51.796;10.956;2023-06-10T05:18:38;23.70;52.80
67899;DHT22;54699;51.796;10.956;2023-06-10T05:21:06;23.70;52.80
67899;DHT22;54699;51.796;10.956;2023-06-10T05:23:33;23.70;52.90
67899;DHT22;54699;51.796;10.956;2023-06-10T05:26:00;23.70;53.00
67899;DHT22;54699;51.796;10.956;2023-06-10T05:28:27;23.70;52.80
67899;DHT22;54699;51.796;10.956;2023-06-10T05:30:54;23.70;53.00
67899;DHT22;54699;51.796;10.956;2023-06-10T05:33:21;23.70;53.00
67899;DHT22;54699;51.796;10.956;2023-06-10T05:35:47;23.70;53.00
67899;DHT22;54699;51.796;10.956;2023-06-10T05:38:16;23.70;53.00
67899;DHT22;54699;51.796;10.956;2023-06-10T05:40:42;23.70;53.20
67899;DHT22;54699;51.796;10.956;2023-06-10T05:43:09;23.70;53.20
67899;DHT22;54699;51.796;10.956;2023-06-10T05:45:36;23.70;53.20
67899;DHT22;54699;51.796;10.956;2023-06-10T05:48:05;23.70;53.00
67899;DHT22;54699;51.796;10.956;2023-06-10T05:50:33;23.60;53.90
67899;DHT22;54699;51.796;10.956;2023-06-10T05:53:04;23.60;53.50
67899;DHT22;54699;51.796;10.956;2023-06-10T05:55:33;23.50;53.30
67899;DHT22;54699;51.796;10.956;2023-06-10T05:58:01;23.60;53.00
67899;DHT22;54699;51.796;10.956;2023-06-10T06:00:28;23.70;53.00
67899;DHT22;54699;51.796;10.956;2023-06-10T06:02:57;23.60;52.60
67899;DHT22;54699;51.796;10.956;2023-06-10T06:05:24;23.60;52.60
67899;DHT22;54699;51.796;10.956;2023-06-10T06:07:51;23.60;52.70
67899;DHT22;54699;51.796;10.956;2023-06-10T06:10:18;23.60;52.80
67899;DHT22;54699;51.796;10.956;2023-06-10T06:12:46;23.60;52.60
67899;DHT22;54699;51.796;10.956;2023-06-10T06:15:16;23.60;52.50
67899;DHT22;54699;51.796;10.956;2023-06-10T06:17:42;23.50;52.40
67899;DHT22;54699;51.796;10.956;2023-06-10T06:20:10;23.50;51.40
67899;DHT22;54699;51.796;10.956;2023-06-10T06:22:38;23.60;53.00
67899;DHT22;54699;51.796;10.956;2023-06-10T06:25:05;23.60;53.00
67899;DHT22;54699;51.796;10.956;2023-06-10T06:27:32;23.60;53.30
67899;DHT22;54699;51.796;10.956;2023-06-10T06:30:01;23.60;53.10
67899;DHT22;54699;51.796;10.956;2023-06-10T06:32:28;23.60;52.90
67899;DHT22;54699;51.796;10.956;2023-06-10T06:34:55;23.60;53.00
67899;DHT22;54699;51.796;10.956;2023-06-10T06:37:22;23.60;53.20
67899;DHT22;54699;51.796;10.956;2023-06-10T06:39:50;23.60;53.40
67899;DHT22;54699;51.796;10.956;2023-06-10T06:42:17;23.70;53.20
67899;DHT22;54699;51.796;10.956;2023-06-10T06:44:44;23.70;53.20
67899;DHT22;54699;51.796;10.956;2023-06-10T06:47:12;23.70;53.20
67899;DHT22;54699;51.796;10.956;2023-06-10T06:49:39;23.70;53.50
67899;DHT22;54699;51.796;10.956;2023-06-10T06:52:06;23.70;53.50
67899;DHT22;54699;51.796;10.956;2023-06-10T06:54:33;23.70;53.30
67899;DHT22;54699;51.796;10.956;2023-06-10T06:57:00;23.70;53.60
67899;DHT22;54699;51.796;10.956;2023-06-10T06:59:27;23.70;54.20
67899;DHT22;54699;51.796;10.956;2023-06-10T07:01:54;23.70;53.20
67899;DHT22;54699;51.796;10.956;2023-06-10T07:04:22;23.70;53.60
67899;DHT22;54699;51.796;10.956;2023-06-10T07:06:49;23.70;53.60
67899;DHT22;54699;51.796;10.956;2023-06-10T07:09:16;23.70;53.40
67899;DHT22;54699;51.796;10.956;2023-06-10T07:11:43;23.70;53.30
67899;DHT22;54699;51.796;10.956;2023-06-10T07:14:10;23.70;53.70
67899;DHT22;54699;51.796;10.956;2023-06-10T07:16:37;23.70;53.60
67899;DHT22;54699;51.796;10.956;2023-06-10T07:19:04;23.80;53.50
67899;DHT22;54699;51.796;10.956;2023-06-10T07:21:32;23.80;53.50
67899;DHT22;54699;51.796;10.956;2023-06-10T07:24:00;23.80;53.90
67899;DHT22;54699;51.796;10.956;2023-06-10T07:26:27;23.80;53.90
67899;DHT22;54699;51.796;10.956;2023-06-10T07:28:54;23.80;54.20
67899;DHT22;54699;51.796;10.956;2023-06-10T07:31:21;23.70;54.50
67899;DHT22;54699;51.796;10.956;2023-06-10T07:33:49;23.70;53.90
67899;DHT22;54699;51.796;10.956;2023-06-10T07:36:16;23.80;54.20
67899;DHT22;54699;51.796;10.956;2023-06-10T07:38:45;23.80;53.80
67899;DHT22;54699;51.796;10.956;2023-06-10T07:41:11;23.80;54.00
67899;DHT22;54699;51.796;10.956;2023-06-10T07:43:39;23.90;54.40
67899;DHT22;54699;51.796;10.956;2023-06-10T07:46:06;23.90;54.00
67899;DHT22;54699;51.796;10.956;2023-06-10T07:48:33;23.90;53.20
67899;DHT22;54699;51.796;10.956;2023-06-10T07:51:00;23.90;52.90
67899;DHT22;54699;51.796;10.956;2023-06-10T07:53:27;23.80;52.40
67899;DHT22;54699;51.796;10.956;2023-06-10T07:55:55;23.80;53.50
67899;DHT22;54699;51.796;10.956;2023-06-10T07:58:22;23.80;53.70
67899;DHT22;54699;51.796;10.956;2023-06-10T08:00:49;23.80;53.50
67899;DHT22;54699;51.796;10.956;2023-06-10T08:03:16;23.80;53.60
67899;DHT22;54699;51.796;10.956;2023-06-10T08:05:42;23.80;53.60
67899;DHT22;54699;51.796;10.956;2023-06-10T08:08:09;23.80;53.00
67899;DHT22;54699;51.796;10.956;2023-06-10T08:10:36;23.80;53.20
67899;DHT22;54699;51.796;10.956;2023-06-10T08:13:05;23.90;53.20
67899;DHT22;54699;51.796;10.956;2023-06-10T08:15:32;23.90;52.90
67899;DHT22;54699;51.796;10.956;2023-06-10T08:17:59;23.90;52.50
67899;DHT22;54699;51.796;10.956;2023-06-10T08:20:25;23.90;52.30
67899;DHT22;54699;51.796;10.956;2023-06-10T08:22:52;23.90;52.20
67899;DHT22;54699;51.796;10.956;2023-06-10T08:25:19;23.90;52.10
67899;DHT22;54699;51.796;10.956;2023-06-10T08:27:47;23.90;52.20
67899;DHT22;54699;51.796;10.956;2023-06-10T08:30:15;23.90;52.20
67899;DHT22;54699;51.796;10.956;2023-06-10T08:32:43;23.90;52.10
67899;DHT22;54699;51.796;10.956;2023-06-10T08:35:10;24.00;52.40
67899;DHT22;54699;51.796;10.956;2023-06-10T08:37:39;24.00;52.30
67899;DHT22;54699;51.796;10.956;2023-06-10T08:40:07;24.00;52.40
67899;DHT22;54699;51.796;10.956;2023-06-10T08:42:37;24.00;52.00
67899;DHT22;54699;51.796;10.956;2023-06-10T08:45:07;24.00;51.90
67899;DHT22;54699;51.796;10.956;2023-06-10T08:47:39;24.00;52.00
67899;DHT22;54699;51.796;10.956;2023-06-10T08:50:10;24.10;51.80
67899;DHT22;54699;51.796;10.956;2023-06-10T08:52:38;24.00;51.80
67899;DHT22;54699;51.796;10.956;2023-06-10T08:55:10;24.00;51.90
67899;DHT22;54699;51.796;10.956;2023-06-10T08:57:40;24.00;51.90
67899;DHT22;54699;51.796;10.956;2023-06-10T09:00:07;24.10;51.70
67899;DHT22;54699;51.796;10.956;2023-06-10T09:02:36;24.10;50.20
67899;DHT22;54699;51.796;10.956;2023-06-10T09:05:04;24.10;51.60
67899;DHT22;54699;51.796;10.956;2023-06-10T09:07:32;24.10;51.60
67899;DHT22;54699;51.796;10.956;2023-06-10T09:10:01;24.10;51.50
67899;DHT22;54699;51.796;10.956;2023-06-10T09:12:32;24.10;49.90
67899;DHT22;54699;51.796;10.956;2023-06-10T09:15:00;24.10;50.30
67899;DHT22;54699;51.796;10.956;2023-06-10T09:17:27;24.10;50.40
67899;DHT22;54699;51.796;10.956;2023-06-10T09:19:54;24.20;49.90
67899;DHT22;54699;51.796;10.956;2023-06-10T09:22:23;24.20;50.10
67899;DHT22;54699;51.796;10.956;2023-06-10T09:24:51;24.20;50.80
67899;DHT22;54699;51.796;10.956;2023-06-10T09:27:29;24.20;50.80
67899;DHT22;54699;51.796;10.956;2023-06-10T09:29:59;24.20;50.60
67899;DHT22;54699;51.796;10.956;2023-06-10T09:32:26;24.20;51.10
67899;DHT22;54699;51.796;10.956;2023-06-10T09:34:55;24.30;51.00
67899;DHT22;54699;51.796;10.956;2023-06-10T09:37:23;24.30;52.20
67899;DHT22;54699;51.796;10.956;2023-06-10T09:40:03;24.30;51.00
67899;DHT22;54699;51.796;10.956;2023-06-10T09:42:34;24.30;51.00
67899;DHT22;54699;51.796;10.956;2023-06-10T09:45:02;24.30;51.30
67899;DHT22;54699;51.796;10.956;2023-06-10T09:47:30;24.40;51.40
67899;DHT22;54699;51.796;10.956;2023-06-10T09:49:57;24.30;52.90
67899;DHT22;54699;51.796;10.956;2023-06-10T09:52:25;24.40;53.00
67899;DHT22;54699;51.796;10.956;2023-06-10T09:54:58;24.40;54.30
67899;DHT22;54699;51.796;10.956;2023-06-10T09:57:26;24.40;53.50
67899;DHT22;54699;51.796;10.956;2023-06-10T09:59:58;24.40;54.80
67899;DHT22;54699;51.796;10.956;2023-06-10T10:02:25;24.40;54.50
67899;DHT22;54699;51.796;10.956;2023-06-10T10:04:52;24.50;55.20
67899;DHT22;54699;51.796;10.956;2023-06-10T10:07:19;24.40;55.50
67899;DHT22;54699;51.796;10.956;2023-06-10T10:09:47;24.50;55.80
67899;DHT22;54699;51.796;10.956;2023-06-10T10:12:15;24.50;55.70
67899;DHT22;54699;51.796;10.956;2023-06-10T10:14:43;24.50;55.90
67899;DHT22;54699;51.796;10.956;2023-06-10T10:17:14;24.50;55.90
67899;DHT22;54699;51.796;10.956;2023-06-10T10:19:43;24.50;55.90
67899;DHT22;54699;51.796;10.956;2023-06-10T10:22:17;24.60;56.30
67899;DHT22;54699;51.796;10.956;2023-06-10T10:24:49;24.60;56.40
67899;DHT22;54699;51.796;10.956;2023-06-10T10:27:18;24.60;56.40
67899;DHT22;54699;51.796;10.956;2023-06-10T10:29:47;24.60;56.70
67899;DHT22;54699;51.796;10.956;2023-06-10T10:32:18;24.60;57.00
67899;DHT22;54699;51.796;10.956;2023-06-10T10:34:53;24.60;57.10
67899;DHT22;54699;51.796;10.956;2023-06-10T10:37:31;24.70;57.30
67899;DHT22;54699;51.796;10.956;2023-06-10T10:39:59;24.70;57.60
67899;DHT22;54699;51.796;10.956;2023-06-10T10:42:27;24.70;57.70
67899;DHT22;54699;51.796;10.956;2023-06-10T10:44:54;24.70;57.70
67899;DHT22;54699;51.796;10.956;2023-06-10T10:47:22;24.70;57.80
67899;DHT22;54699;51.796;10.956;2023-06-10T10:49:54;24.80;57.50
67899;DHT22;54699;51.796;10.956;2023-06-10T10:52:24;24.80;57.50
67899;DHT22;54699;51.796;10.956;2023-06-10T10:54:53;24.80;57.60
67899;DHT22;54699;51.796;10.956;2023-06-10T10:57:22;24.80;57.60
67899;DHT22;54699;51.796;10.956;2023-06-10T10:59:54;24.80;58.00
67899;DHT22;54699;51.796;10.956;2023-06-10T11:02:33;24.80;58.00
67899;DHT22;54699;51.796;10.956;2023-06-10T11:05:04;24.90;58.00
67899;DHT22;54699;51.796;10.956;2023-06-10T11:07:32;24.90;58.00
67899;DHT22;54699;51.796;10.956;2023-06-10T11:10:00;24.90;57.90
67899;DHT22;54699;51.796;10.956;2023-06-10T11:15:26;24.90;58.00
67899;DHT22;54699;51.796;10.956;2023-06-10T11:18:07;24.90;58.10
67899;DHT22;54699;51.796;10.956;2023-06-10T11:20:44;25.00;58.30
67899;DHT22;54699;51.796;10.956;2023-06-10T11:23:24;25.00;58.40
67899;DHT22;54699;51.796;10.956;2023-06-10T11:26:11;25.00;58.20
67899;DHT22;54699;51.796;10.956;2023-06-10T11:31:30;25.00;58.70
67899;DHT22;54699;51.796;10.956;2023-06-10T11:33:59;25.10;58.80
67899;DHT22;54699;51.796;10.956;2023-06-10T11:36:28;25.10;58.50
67899;DHT22;54699;51.796;10.956;2023-06-10T11:38:56;25.10;58.80
67899;DHT22;54699;51.796;10.956;2023-06-10T11:41:25;25.10;58.90
67899;DHT22;54699;51.796;10.956;2023-06-10T11:43:52;25.20;58.80
67899;DHT22;54699;51.796;10.956;2023-06-10T11:46:20;25.20;58.80
67899;DHT22;54699;51.796;10.956;2023-06-10T11:48:48;25.20;58.60
67899;DHT22;54699;51.796;10.956;2023-06-10T11:51:16;25.20;58.90
67899;DHT22;54699;51.796;10.956;2023-06-10T11:53:43;25.20;58.90
67899;DHT22;54699;51.796;10.956;2023-06-10T11:56:10;25.20;58.90
67899;DHT22;54699;51.796;10.956;2023-06-10T11:58:37;25.20;58.80
67899;DHT22;54699;51.796;10.956;2023-06-10T12:01:10;25.20;59.50
67899;DHT22;54699;51.796;10.956;2023-06-10T12:03:38;25.30;58.90
67899;DHT22;54699;51.796;10.956;2023-06-10T12:06:05;25.30;58.90
67899;DHT22;54699;51.796;10.956;2023-06-10T12:08:33;25.30;58.90
67899;DHT22;54699;51.796;10.956;2023-06-10T12:11:07;25.30;59.10
67899;DHT22;54699;51.796;10.956;2023-06-10T12:13:34;25.30;59.10
67899;DHT22;54699;51.796;10.956;2023-06-10T12:16:07;25.40;59.30
67899;DHT22;54699;51.796;10.956;2023-06-10T12:18:35;25.40;59.50
67899;DHT22;54699;51.796;10.956;2023-06-10T12:21:03;25.40;59.70
67899;DHT22;54699;51.796;10.956;2023-06-10T12:26:35;25.40;59.20
67899;DHT22;54699;51.796;10.956;2023-06-10T12:29:11;25.40;59.20
67899;DHT22;54699;51.796;10.956;2023-06-10T12:31:55;25.50;59.10
67899;DHT22;54699;51.796;10.956;2023-06-10T12:34:28;25.50;58.90
67899;DHT22;54699;51.796;10.956;2023-06-10T12:36:59;25.50;58.80
67899;DHT22;54699;51.796;10.956;2023-06-10T12:39:29;25.50;58.90
67899;DHT22;54699;51.796;10.956;2023-06-10T12:41:56;25.50;58.80
67899;DHT22;54699;51.796;10.956;2023-06-10T12:44:30;25.50;59.00
67899;DHT22;54699;51.796;10.956;2023-06-10T12:47:01;25.60;59.20
67899;DHT22;54699;51.796;10.956;2023-06-10T12:49:33;25.60;59.00
67899;DHT22;54699;51.796;10.956;2023-06-10T12:52:01;25.60;59.30
67899;DHT22;54699;51.796;10.956;2023-06-10T12:54:28;25.60;59.20
67899;DHT22;54699;51.796;10.956;2023-06-10T12:56:55;25.60;59.30
67899;DHT22;54699;51.796;10.956;2023-06-10T12:59:22;25.60;59.30
67899;DHT22;54699;51.796;10.956;2023-06-10T13:01:50;25.60;59.00
67899;DHT22;54699;51.796;10.956;2023-06-10T13:04:17;25.60;58.90
67899;DHT22;54699;51.796;10.956;2023-06-10T13:06:44;25.60;59.00
67899;DHT22;54699;51.796;10.956;2023-06-10T13:09:14;25.70;58.80
67899;DHT22;54699;51.796;10.956;2023-06-10T13:11:41;25.70;59.00
67899;DHT22;54699;51.796;10.956;2023-06-10T13:14:10;25.70;58.80
67899;DHT22;54699;51.796;10.956;2023-06-10T13:16:37;25.70;59.00
67899;DHT22;54699;51.796;10.956;2023-06-10T13:19:04;25.70;59.20
67899;DHT22;54699;51.796;10.956;2023-06-10T13:21:32;25.70;59.20
67899;DHT22;54699;51.796;10.956;2023-06-10T13:24:00;25.70;59.30
67899;DHT22;54699;51.796;10.956;2023-06-10T13:26:29;25.70;59.40
67899;DHT22;54699;51.796;10.956;2023-06-10T13:28:56;25.80;59.00
67899;DHT22;54699;51.796;10.956;2023-06-10T13:31:23;25.80;59.10
67899;DHT22;54699;51.796;10.956;2023-06-10T13:33:50;25.80;58.90
67899;DHT22;54699;51.796;10.956;2023-06-10T13:36:17;25.80;59.00
67899;DHT22;54699;51.796;10.956;2023-06-10T13:38:44;25.80;59.00
67899;DHT22;54699;51.796;10.956;2023-06-10T13:41:12;25.80;59.00
67899;DHT22;54699;51.796;10.956;2023-06-10T13:43:41;25.90;59.00
67899;DHT22;54699;51.796;10.956;2023-06-10T13:46:08;25.90;58.90
67899;DHT22;54699;51.796;10.956;2023-06-10T13:48:35;25.90;59.10
67899;DHT22;54699;51.796;10.956;2023-06-10T13:51:01;25.90;59.10
67899;DHT22;54699;51.796;10.956;2023-06-10T13:53:29;25.90;59.10
67899;DHT22;54699;51.796;10.956;2023-06-10T13:55:55;25.90;59.10
67899;DHT22;54699;51.796;10.956;2023-06-10T13:58:22;26.00;59.00
67899;DHT22;54699;51.796;10.956;2023-06-10T14:00:50;26.10;58.70
67899;DHT22;54699;51.796;10.956;2023-06-10T14:03:18;26.10;58.10
67899;DHT22;54699;51.796;10.956;2023-06-10T14:05:45;26.20;58.00
67899;DHT22;54699;51.796;10.956;2023-06-10T14:08:12;26.20;58.00
67899;DHT22;54699;51.796;10.956;2023-06-10T14:10:39;26.30;58.00
67899;DHT22;54699;51.796;10.956;2023-06-10T14:13:06;26.30;58.20
67899;DHT22;54699;51.796;10.956;2023-06-10T14:15:33;26.30;58.30
67899;DHT22;54699;51.796;10.956;2023-06-10T14:18:03;26.40;58.40
67899;DHT22;54699;51.796;10.956;2023-06-10T14:20:31;26.40;58.60
67899;DHT22;54699;51.796;10.956;2023-06-10T14:22:58;26.40;58.70
67899;DHT22;54699;51.796;10.956;2023-06-10T14:25:25;26.40;58.90
67899;DHT22;54699;51.796;10.956;2023-06-10T14:27:52;26.50;59.40
67899;DHT22;54699;51.796;10.956;2023-06-10T14:30:19;26.40;59.10
67899;DHT22;54699;51.796;10.956;2023-06-10T14:32:46;26.40;59.00
67899;DHT22;54699;51.796;10.956;2023-06-10T14:35:14;26.40;58.80
67899;DHT22;54699;51.796;10.956;2023-06-10T14:37:41;26.40;59.30
67899;DHT22;54699;51.796;10.956;2023-06-10T14:40:08;26.40;59.60
67899;DHT22;54699;51.796;10.956;2023-06-10T14:42:36;26.30;59.90
67899;DHT22;54699;51.796;10.956;2023-06-10T14:45:03;26.30;59.90
67899;DHT22;54699;51.796;10.956;2023-06-10T14:47:31;26.40;60.00
67899;DHT22;54699;51.796;10.956;2023-06-10T14:49:58;26.30;59.90
67899;DHT22;54699;51.796;10.956;2023-06-10T14:52:26;26.30;60.00
67899;DHT22;54699;51.796;10.956;2023-06-10T14:54:52;26.40;59.80
67899;DHT22;54699;51.796;10.956;2023-06-10T14:57:19;26.30;60.70
67899;DHT22;54699;51.796;10.956;2023-06-10T14:59:46;26.40;60.10
67899;DHT22;54699;51.796;10.956;2023-06-10T15:02:13;26.40;60.10
67899;DHT22;54699;51.796;10.956;2023-06-10T15:04:40;26.40;60.10
67899;DHT22;54699;51.796;10.956;2023-06-10T15:07:07;26.40;60.00
67899;DHT22;54699;51.796;10.956;2023-06-10T15:09:35;26.40;60.80
67899;DHT22;54699;51.796;10.956;2023-06-10T15:12:02;26.40;59.90
67899;DHT22;54699;51.796;10.956;2023-06-10T15:14:31;26.30;59.50
67899;DHT22;54699;51.796;10.956;2023-06-10T15:16:57;26.40;59.50
67899;DHT22;54699;51.796;10.956;2023-06-10T15:19:24;26.40;59.80
67899;DHT22;54699;51.796;10.956;2023-06-10T15:21:52;26.30;59.80
67899;DHT22;54699;51.796;10.956;2023-06-10T15:24:19;26.30;60.00
67899;DHT22;54699;51.796;10.956;2023-06-10T15:26:48;26.30;59.90
67899;DHT22;54699;51.796;10.956;2023-06-10T15:29:15;26.30;59.90
67899;DHT22;54699;51.796;10.956;2023-06-10T15:31:42;26.20;60.20